sensor_id;sensor_type;location;lat;lon;timestamp;P1;durP1;ratioP1;P2;durP2;ratioP2
6834;SDS011;3455;42.150;24.734;2022-10-01T00:00:48;5.13;;;4.23;;
6834;SDS011;3455;42.150;24.734;2022-10-01T00:03:17;5.75;;;4.57;;
6834;SDS011;3455;42.150;24.734;2022-10-01T00:05:44;4.27;;;3.97;;
6834;SDS011;3455;42.150;24.734;2022-10-01T00:08:12;5.00;;;4.60;;
6834;SDS011;3455;42.150;24.734;2022-10-01T00:10:42;4.70;;;4.20;;
6834;SDS011;3455;42.150;24.734;2022-10-01T00:13:09;5.53;;;4.82;;
6834;SDS011;3455;42.150;24.734;2022-10-01T00:15:37;4.17;;;3.87;;
6834;SDS011;3455;42.150;24.734;2022-10-01T00:18:04;4.60;;;4.20;;
6834;SDS011;3455;42.150;24.734;2022-10-01T00:20:32;5.07;;;4.77;;
6834;SDS011;3455;42.150;24.734;2022-10-01T00:22:59;4.90;;;4.50;;
6834;SDS011;3455;42.150;24.734;2022-10-01T00:25:26;4.87;;;4.57;;
6834;SDS011;3455;42.150;24.734;2022-10-01T00:27:54;8.67;;;4.57;;
6834;SDS011;3455;42.150;24.734;2022-10-01T00:30:21;4.63;;;4.33;;
6834;SDS011;3455;42.150;24.734;2022-10-01T00:32:48;4.33;;;4.03;;
6834;SDS011;3455;42.150;24.734;2022-10-01T00:35:18;4.90;;;4.60;;
6834;SDS011;3455;42.150;24.734;2022-10-01T00:37:46;4.73;;;4.43;;
6834;SDS011;3455;42.150;24.734;2022-10-01T00:40:13;4.93;;;4.53;;
6834;SDS011;3455;42.150;24.734;2022-10-01T00:42:40;6.87;;;4.93;;
6834;SDS011;3455;42.150;24.734;2022-10-01T00:45:09;5.60;;;4.23;;
6834;SDS011;3455;42.150;24.734;2022-10-01T00:47:38;5.70;;;4.67;;
6834;SDS011;3455;42.150;24.734;2022-10-01T00:50:08;5.07;;;4.77;;
6834;SDS011;3455;42.150;24.734;2022-10-01T00:52:41;5.30;;;4.43;;
6834;SDS011;3455;42.150;24.734;2022-10-01T00:55:12;5.23;;;4.80;;
6834;SDS011;3455;42.150;24.734;2022-10-01T00:57:42;4.77;;;4.50;;
6834;SDS011;3455;42.150;24.734;2022-10-01T01:00:11;4.87;;;4.53;;
6834;SDS011;3455;42.150;24.734;2022-10-01T01:02:39;6.03;;;4.73;;
6834;SDS011;3455;42.150;24.734;2022-10-01T01:05:06;5.43;;;4.63;;
6834;SDS011;3455;42.150;24.734;2022-10-01T01:07:34;5.70;;;5.10;;
6834;SDS011;3455;42.150;24.734;2022-10-01T01:10:03;5.37;;;4.93;;
6834;SDS011;3455;42.150;24.734;2022-10-01T01:12:38;5.50;;;4.30;;
6834;SDS011;3455;42.150;24.734;2022-10-01T01:15:19;5.10;;;4.47;;
6834;SDS011;3455;42.150;24.734;2022-10-01T01:17:51;5.60;;;5.10;;
6834;SDS011;3455;42.150;24.734;2022-10-01T01:20:37;4.90;;;4.60;;
6834;SDS011;3455;42.150;24.734;2022-10-01T01:26:15;5.20;;;4.73;;
6834;SDS011;3455;42.150;24.734;2022-10-01T01:28:58;6.10;;;5.13;;
6834;SDS011;3455;42.150;24.734;2022-10-01T01:31:30;6.80;;;4.67;;
6834;SDS011;3455;42.150;24.734;2022-10-01T01:34:04;5.03;;;4.73;;
6834;SDS011;3455;42.150;24.734;2022-10-01T01:36:36;4.80;;;4.33;;
6834;SDS011;3455;42.150;24.734;2022-10-01T01:39:09;5.47;;;4.30;;
6834;SDS011;3455;42.150;24.734;2022-10-01T01:41:40;5.60;;;4.90;;
6834;SDS011;3455;42.150;24.734;2022-10-01T01:44:13;5.40;;;4.90;;
6834;SDS011;3455;42.150;24.734;2022-10-01T01:46:43;5.03;;;4.57;;
6834;SDS011;3455;42.150;24.734;2022-10-01T01:49:13;5.07;;;4.73;;
6834;SDS011;3455;42.150;24.734;2022-10-01T01:51:42;5.60;;;5.07;;
6834;SDS011;3455;42.150;24.734;2022-10-01T01:54:14;8.50;;;4.90;;
6834;SDS011;3455;42.150;24.734;2022-10-01T01:56:41;7.57;;;4.93;;
6834;SDS011;3455;42.150;24.734;2022-10-01T01:59:07;6.57;;;4.60;;
6834;SDS011;3455;42.150;24.734;2022-10-01T02:01:37;6.63;;;4.93;;
6834;SDS011;3455;42.150;24.734;2022-10-01T02:04:06;5.33;;;4.80;;
6834;SDS011;3455;42.150;24.734;2022-10-01T02:06:43;5.83;;;5.03;;
6834;SDS011;3455;42.150;24.734;2022-10-01T02:09:20;4.97;;;4.73;;
6834;SDS011;3455;42.150;24.734;2022-10-01T02:11:54;7.57;;;4.90;;
6834;SDS011;3455;42.150;24.734;2022-10-01T02:14:34;7.07;;;5.00;;
6834;SDS011;3455;42.150;24.734;2022-10-01T02:17:10;6.37;;;4.73;;
6834;SDS011;3455;42.150;24.734;2022-10-01T02:19:42;8.27;;;5.10;;
6834;SDS011;3455;42.150;24.734;2022-10-01T02:22:15;5.83;;;5.27;;
6834;SDS011;3455;42.150;24.734;2022-10-01T02:24:46;5.27;;;4.83;;
6834;SDS011;3455;42.150;24.734;2022-10-01T02:27:16;5.93;;;5.00;;
6834;SDS011;3455;42.150;24.734;2022-10-01T02:29:47;6.60;;;4.87;;
6834;SDS011;3455;42.150;24.734;2022-10-01T02:32:17;10.50;;;4.90;;
6834;SDS011;3455;42.150;24.734;2022-10-01T02:34:46;6.03;;;5.40;;
6834;SDS011;3455;42.150;24.734;2022-10-01T02:37:15;7.37;;;5.57;;
6834;SDS011;3455;42.150;24.734;2022-10-01T02:39:46;11.60;;;6.90;;
6834;SDS011;3455;42.150;24.734;2022-10-01T02:42:14;8.00;;;5.50;;
6834;SDS011;3455;42.150;24.734;2022-10-01T02:44:43;7.50;;;5.40;;
6834;SDS011;3455;42.150;24.734;2022-10-01T02:47:13;5.87;;;5.43;;
6834;SDS011;3455;42.150;24.734;2022-10-01T02:49:45;6.33;;;5.63;;
6834;SDS011;3455;42.150;24.734;2022-10-01T02:52:14;8.40;;;5.77;;
6834;SDS011;3455;42.150;24.734;2022-10-01T02:54:48;5.03;;;4.73;;
6834;SDS011;3455;42.150;24.734;2022-10-01T02:57:17;7.80;;;5.37;;
6834;SDS011;3455;42.150;24.734;2022-10-01T02:59:51;5.73;;;5.27;;
6834;SDS011;3455;42.150;24.734;2022-10-01T03:02:22;5.87;;;5.27;;
6834;SDS011;3455;42.150;24.734;2022-10-01T03:04:53;6.33;;;5.53;;
6834;SDS011;3455;42.150;24.734;2022-10-01T03:07:20;7.37;;;5.47;;
6834;SDS011;3455;42.150;24.734;2022-10-01T03:09:48;8.20;;;5.27;;
6834;SDS011;3455;42.150;24.734;2022-10-01T03:12:15;7.23;;;5.70;;
6834;SDS011;3455;42.150;24.734;2022-10-01T03:14:42;6.63;;;6.03;;
6834;SDS011;3455;42.150;24.734;2022-10-01T03:17:09;6.20;;;5.60;;
6834;SDS011;3455;42.150;24.734;2022-10-01T03:19:37;5.60;;;5.23;;
6834;SDS011;3455;42.150;24.734;2022-10-01T03:22:05;6.70;;;6.10;;
6834;SDS011;3455;42.150;24.734;2022-10-01T03:24:32;7.07;;;5.77;;
6834;SDS011;3455;42.150;24.734;2022-10-01T03:26:59;6.53;;;5.37;;
6834;SDS011;3455;42.150;24.734;2022-10-01T03:29:26;6.70;;;6.00;;
6834;SDS011;3455;42.150;24.734;2022-10-01T03:31:53;6.77;;;6.27;;
6834;SDS011;3455;42.150;24.734;2022-10-01T03:34:20;6.43;;;5.90;;
6834;SDS011;3455;42.150;24.734;2022-10-01T03:36:47;8.83;;;5.97;;
6834;SDS011;3455;42.150;24.734;2022-10-01T03:39:15;8.97;;;5.40;;
6834;SDS011;3455;42.150;24.734;2022-10-01T03:41:42;9.83;;;6.40;;
6834;SDS011;3455;42.150;24.734;2022-10-01T03:44:09;7.30;;;5.80;;
6834;SDS011;3455;42.150;24.734;2022-10-01T03:46:36;6.03;;;5.53;;
6834;SDS011;3455;42.150;24.734;2022-10-01T03:49:03;7.50;;;4.43;;
6834;SDS011;3455;42.150;24.734;2022-10-01T03:51:30;5.50;;;5.10;;
6834;SDS011;3455;42.150;24.734;2022-10-01T03:53:57;5.30;;;5.00;;
6834;SDS011;3455;42.150;24.734;2022-10-01T03:56:25;5.80;;;5.30;;
6834;SDS011;3455;42.150;24.734;2022-10-01T03:58:52;7.30;;;5.83;;
6834;SDS011;3455;42.150;24.734;2022-10-01T04:01:19;5.40;;;5.00;;
6834;SDS011;3455;42.150;24.734;2022-10-01T04:03:46;5.77;;;5.27;;
6834;SDS011;3455;42.150;24.734;2022-10-01T04:06:14;9.40;;;5.60;;
6834;SDS011;3455;42.150;24.734;2022-10-01T04:08:41;6.57;;;5.67;;
6834;SDS011;3455;42.150;24.734;2022-10-01T04:11:08;7.27;;;6.63;;
6834;SDS011;3455;42.150;24.734;2022-10-01T04:13:37;5.03;;;4.73;;
6834;SDS011;3455;42.150;24.734;2022-10-01T04:16:04;5.93;;;4.73;;
6834;SDS011;3455;42.150;24.734;2022-10-01T04:18:32;7.27;;;5.17;;
6834;SDS011;3455;42.150;24.734;2022-10-01T04:20:59;8.33;;;6.93;;
6834;SDS011;3455;42.150;24.734;2022-10-01T04:23:26;9.17;;;6.27;;
6834;SDS011;3455;42.150;24.734;2022-10-01T04:25:53;8.67;;;5.37;;
6834;SDS011;3455;42.150;24.734;2022-10-01T04:28:23;5.80;;;5.40;;
6834;SDS011;3455;42.150;24.734;2022-10-01T04:30:51;5.97;;;5.10;;
6834;SDS011;3455;42.150;24.734;2022-10-01T04:33:38;8.60;;;5.60;;
6834;SDS011;3455;42.150;24.734;2022-10-01T04:36:05;5.33;;;4.70;;
6834;SDS011;3455;42.150;24.734;2022-10-01T04:38:32;8.47;;;5.30;;
6834;SDS011;3455;42.150;24.734;2022-10-01T04:40:59;6.80;;;5.07;;
6834;SDS011;3455;42.150;24.734;2022-10-01T04:43:26;7.30;;;5.00;;
6834;SDS011;3455;42.150;24.734;2022-10-01T04:45:54;5.13;;;4.47;;
6834;SDS011;3455;42.150;24.734;2022-10-01T04:48:21;5.67;;;4.57;;
6834;SDS011;3455;42.150;24.734;2022-10-01T04:50:48;7.70;;;5.10;;
6834;SDS011;3455;42.150;24.734;2022-10-01T04:53:14;7.07;;;5.33;;
6834;SDS011;3455;42.150;24.734;2022-10-01T04:55:41;5.47;;;5.00;;
6834;SDS011;3455;42.150;24.734;2022-10-01T04:58:10;5.60;;;5.10;;
6834;SDS011;3455;42.150;24.734;2022-10-01T05:00:37;6.83;;;5.73;;
6834;SDS011;3455;42.150;24.734;2022-10-01T05:03:05;8.47;;;5.27;;
6834;SDS011;3455;42.150;24.734;2022-10-01T05:05:32;7.17;;;5.87;;
6834;SDS011;3455;42.150;24.734;2022-10-01T05:07:59;7.77;;;6.07;;
6834;SDS011;3455;42.150;24.734;2022-10-01T05:10:26;6.60;;;4.90;;
6834;SDS011;3455;42.150;24.734;2022-10-01T05:12:53;9.93;;;6.13;;
6834;SDS011;3455;42.150;24.734;2022-10-01T05:15:20;8.93;;;5.30;;
6834;SDS011;3455;42.150;24.734;2022-10-01T05:17:47;8.55;;;5.72;;
6834;SDS011;3455;42.150;24.734;2022-10-01T05:20:16;9.40;;;5.10;;
6834;SDS011;3455;42.150;24.734;2022-10-01T05:22:44;7.82;;;5.93;;
6834;SDS011;3455;42.150;24.734;2022-10-01T05:25:11;8.98;;;5.75;;
6834;SDS011;3455;42.150;24.734;2022-10-01T05:27:38;6.17;;;5.57;;
6834;SDS011;3455;42.150;24.734;2022-10-01T05:30:06;10.07;;;7.63;;
6834;SDS011;3455;42.150;24.734;2022-10-01T05:32:34;10.55;;;5.10;;
6834;SDS011;3455;42.150;24.734;2022-10-01T05:35:01;10.15;;;5.75;;
6834;SDS011;3455;42.150;24.734;2022-10-01T05:37:29;7.75;;;4.50;;
6834;SDS011;3455;42.150;24.734;2022-10-01T05:39:56;5.68;;;4.93;;
6834;SDS011;3455;42.150;24.734;2022-10-01T05:42:23;7.18;;;5.00;;
6834;SDS011;3455;42.150;24.734;2022-10-01T05:44:51;6.78;;;4.32;;
6834;SDS011;3455;42.150;24.734;2022-10-01T05:47:17;7.05;;;4.35;;
6834;SDS011;3455;42.150;24.734;2022-10-01T05:49:45;5.13;;;4.03;;
6834;SDS011;3455;42.150;24.734;2022-10-01T05:52:13;7.10;;;4.20;;
6834;SDS011;3455;42.150;24.734;2022-10-01T05:54:42;8.68;;;4.70;;
6834;SDS011;3455;42.150;24.734;2022-10-01T05:57:09;13.15;;;4.80;;
6834;SDS011;3455;42.150;24.734;2022-10-01T05:59:36;15.35;;;5.20;;
6834;SDS011;3455;42.150;24.734;2022-10-01T06:02:03;8.13;;;4.82;;
6834;SDS011;3455;42.150;24.734;2022-10-01T06:04:30;8.93;;;4.60;;
6834;SDS011;3455;42.150;24.734;2022-10-01T06:06:57;6.75;;;4.20;;
6834;SDS011;3455;42.150;24.734;2022-10-01T06:09:24;21.23;;;8.20;;
6834;SDS011;3455;42.150;24.734;2022-10-01T06:11:52;9.27;;;4.93;;
6834;SDS011;3455;42.150;24.734;2022-10-01T06:14:19;6.30;;;4.55;;
6834;SDS011;3455;42.150;24.734;2022-10-01T06:16:46;12.48;;;4.80;;
6834;SDS011;3455;42.150;24.734;2022-10-01T06:19:13;12.13;;;4.65;;
6834;SDS011;3455;42.150;24.734;2022-10-01T06:21:41;6.32;;;3.83;;
6834;SDS011;3455;42.150;24.734;2022-10-01T06:24:08;8.88;;;3.55;;
6834;SDS011;3455;42.150;24.734;2022-10-01T06:26:35;11.23;;;5.25;;
6834;SDS011;3455;42.150;24.734;2022-10-01T06:29:03;12.93;;;4.57;;
6834;SDS011;3455;42.150;24.734;2022-10-01T06:31:30;14.13;;;4.05;;
6834;SDS011;3455;42.150;24.734;2022-10-01T06:33:56;9.18;;;3.92;;
6834;SDS011;3455;42.150;24.734;2022-10-01T06:36:23;6.82;;;3.60;;
6834;SDS011;3455;42.150;24.734;2022-10-01T06:38:50;9.05;;;3.33;;
6834;SDS011;3455;42.150;24.734;2022-10-01T06:41:17;4.60;;;3.47;;
6834;SDS011;3455;42.150;24.734;2022-10-01T06:43:43;6.25;;;3.92;;
6834;SDS011;3455;42.150;24.734;2022-10-01T06:46:12;4.22;;;3.42;;
6834;SDS011;3455;42.150;24.734;2022-10-01T06:48:38;3.22;;;3.03;;
6834;SDS011;3455;42.150;24.734;2022-10-01T06:51:05;13.95;;;3.80;;
6834;SDS011;3455;42.150;24.734;2022-10-01T06:53:33;9.88;;;3.38;;
6834;SDS011;3455;42.150;24.734;2022-10-01T06:56:02;11.52;;;3.55;;
6834;SDS011;3455;42.150;24.734;2022-10-01T06:58:30;3.75;;;3.42;;
6834;SDS011;3455;42.150;24.734;2022-10-01T07:00:57;3.28;;;3.00;;
6834;SDS011;3455;42.150;24.734;2022-10-01T07:03:27;7.68;;;3.40;;
6834;SDS011;3455;42.150;24.734;2022-10-01T07:05:59;3.75;;;3.25;;
6834;SDS011;3455;42.150;24.734;2022-10-01T07:08:27;7.40;;;3.45;;
6834;SDS011;3455;42.150;24.734;2022-10-01T07:10:58;5.65;;;3.00;;
6834;SDS011;3455;42.150;24.734;2022-10-01T07:13:26;4.53;;;2.85;;
6834;SDS011;3455;42.150;24.734;2022-10-01T07:15:53;11.73;;;2.92;;
6834;SDS011;3455;42.150;24.734;2022-10-01T07:18:20;5.72;;;2.83;;
6834;SDS011;3455;42.150;24.734;2022-10-01T07:20:48;5.72;;;3.35;;
6834;SDS011;3455;42.150;24.734;2022-10-01T07:23:15;6.55;;;2.67;;
6834;SDS011;3455;42.150;24.734;2022-10-01T07:25:42;7.20;;;2.42;;
6834;SDS011;3455;42.150;24.734;2022-10-01T07:28:10;5.20;;;2.30;;
6834;SDS011;3455;42.150;24.734;2022-10-01T07:30:42;6.88;;;3.08;;
6834;SDS011;3455;42.150;24.734;2022-10-01T07:33:11;4.82;;;2.65;;
6834;SDS011;3455;42.150;24.734;2022-10-01T07:35:38;2.72;;;2.30;;
6834;SDS011;3455;42.150;24.734;2022-10-01T07:38:06;5.03;;;2.33;;
6834;SDS011;3455;42.150;24.734;2022-10-01T07:40:34;3.35;;;3.13;;
6834;SDS011;3455;42.150;24.734;2022-10-01T07:43:00;6.13;;;2.92;;
6834;SDS011;3455;42.150;24.734;2022-10-01T07:45:27;3.97;;;3.35;;
6834;SDS011;3455;42.150;24.734;2022-10-01T07:47:54;10.88;;;2.88;;
6834;SDS011;3455;42.150;24.734;2022-10-01T07:50:23;3.00;;;2.75;;
6834;SDS011;3455;42.150;24.734;2022-10-01T07:52:50;3.92;;;2.83;;
6834;SDS011;3455;42.150;24.734;2022-10-01T07:55:20;5.78;;;2.70;;
6834;SDS011;3455;42.150;24.734;2022-10-01T07:57:51;8.85;;;3.10;;
6834;SDS011;3455;42.150;24.734;2022-10-01T08:00:18;11.20;;;3.00;;
6834;SDS011;3455;42.150;24.734;2022-10-01T08:02:46;4.22;;;2.83;;
6834;SDS011;3455;42.150;24.734;2022-10-01T08:05:14;3.38;;;2.85;;
6834;SDS011;3455;42.150;24.734;2022-10-01T08:07:44;7.55;;;2.85;;
6834;SDS011;3455;42.150;24.734;2022-10-01T08:10:12;5.05;;;2.95;;
6834;SDS011;3455;42.150;24.734;2022-10-01T08:12:41;7.10;;;2.28;;
6834;SDS011;3455;42.150;24.734;2022-10-01T08:15:08;6.32;;;2.90;;
6834;SDS011;3455;42.150;24.734;2022-10-01T08:17:36;7.53;;;2.55;;
6834;SDS011;3455;42.150;24.734;2022-10-01T08:20:03;4.25;;;2.90;;
6834;SDS011;3455;42.150;24.734;2022-10-01T08:22:31;5.05;;;2.92;;
6834;SDS011;3455;42.150;24.734;2022-10-01T08:24:58;5.55;;;2.67;;
6834;SDS011;3455;42.150;24.734;2022-10-01T08:27:25;2.88;;;2.67;;
6834;SDS011;3455;42.150;24.734;2022-10-01T08:29:59;5.72;;;2.60;;
6834;SDS011;3455;42.150;24.734;2022-10-01T08:32:46;5.80;;;2.95;;
6834;SDS011;3455;42.150;24.734;2022-10-01T08:35:36;4.22;;;2.40;;
6834;SDS011;3455;42.150;24.734;2022-10-01T08:38:04;5.40;;;2.90;;
6834;SDS011;3455;42.150;24.734;2022-10-01T08:40:31;5.82;;;2.58;;
6834;SDS011;3455;42.150;24.734;2022-10-01T08:43:01;2.50;;;2.40;;
6834;SDS011;3455;42.150;24.734;2022-10-01T08:45:35;5.18;;;2.53;;
6834;SDS011;3455;42.150;24.734;2022-10-01T08:48:11;2.97;;;2.78;;
6834;SDS011;3455;42.150;24.734;2022-10-01T08:50:45;6.35;;;2.53;;
6834;SDS011;3455;42.150;24.734;2022-10-01T08:53:28;3.65;;;2.70;;
6834;SDS011;3455;42.150;24.734;2022-10-01T08:56:01;5.18;;;2.67;;
6834;SDS011;3455;42.150;24.734;2022-10-01T08:58:31;3.50;;;2.30;;
6834;SDS011;3455;42.150;24.734;2022-10-01T09:01:07;6.55;;;3.33;;
6834;SDS011;3455;42.150;24.734;2022-10-01T09:03:35;31.13;;;4.80;;
6834;SDS011;3455;42.150;24.734;2022-10-01T09:06:07;4.13;;;2.60;;
6834;SDS011;3455;42.150;24.734;2022-10-01T09:08:45;5.90;;;2.85;;
6834;SDS011;3455;42.150;24.734;2022-10-01T09:11:25;2.97;;;2.78;;
6834;SDS011;3455;42.150;24.734;2022-10-01T09:14:16;4.40;;;3.33;;
6834;SDS011;3455;42.150;24.734;2022-10-01T09:16:53;5.15;;;3.20;;
6834;SDS011;3455;42.150;24.734;2022-10-01T09:19:32;3.45;;;3.10;;
6834;SDS011;3455;42.150;24.734;2022-10-01T09:22:10;4.70;;;3.15;;
6834;SDS011;3455;42.150;24.734;2022-10-01T09:24:43;6.00;;;3.20;;
6834;SDS011;3455;42.150;24.734;2022-10-01T09:27:16;3.50;;;3.30;;
6834;SDS011;3455;42.150;24.734;2022-10-01T09:29:47;7.40;;;3.58;;
6834;SDS011;3455;42.150;24.734;2022-10-01T09:32:18;9.80;;;3.65;;
6834;SDS011;3455;42.150;24.734;2022-10-01T09:34:48;5.63;;;3.58;;
6834;SDS011;3455;42.150;24.734;2022-10-01T09:37:19;4.95;;;2.70;;
6834;SDS011;3455;42.150;24.734;2022-10-01T09:39:58;6.72;;;3.38;;
6834;SDS011;3455;42.150;24.734;2022-10-01T09:42:32;7.05;;;3.45;;
6834;SDS011;3455;42.150;24.734;2022-10-01T09:45:00;5.47;;;3.95;;
6834;SDS011;3455;42.150;24.734;2022-10-01T09:50:32;5.03;;;3.75;;
6834;SDS011;3455;42.150;24.734;2022-10-01T09:53:03;4.45;;;4.05;;
6834;SDS011;3455;42.150;24.734;2022-10-01T09:55:36;4.75;;;4.32;;
6834;SDS011;3455;42.150;24.734;2022-10-01T09:58:07;6.30;;;4.07;;
6834;SDS011;3455;42.150;24.734;2022-10-01T10:00:37;3.38;;;3.08;;
6834;SDS011;3455;42.150;24.734;2022-10-01T10:03:06;4.47;;;3.45;;
6834;SDS011;3455;42.150;24.734;2022-10-01T10:05:42;7.30;;;3.78;;
6834;SDS011;3455;42.150;24.734;2022-10-01T10:08:25;3.97;;;3.50;;
6834;SDS011;3455;42.150;24.734;2022-10-01T10:10:55;6.03;;;3.78;;
6834;SDS011;3455;42.150;24.734;2022-10-01T10:13:30;6.95;;;3.38;;
6834;SDS011;3455;42.150;24.734;2022-10-01T10:15:59;3.50;;;3.30;;
6834;SDS011;3455;42.150;24.734;2022-10-01T10:18:34;3.80;;;3.50;;
6834;SDS011;3455;42.150;24.734;2022-10-01T10:21:04;5.20;;;4.15;;
6834;SDS011;3455;42.150;24.734;2022-10-01T10:23:33;4.47;;;3.85;;
6834;SDS011;3455;42.150;24.734;2022-10-01T10:26:00;7.88;;;3.65;;
6834;SDS011;3455;42.150;24.734;2022-10-01T10:28:38;5.18;;;4.68;;
6834;SDS011;3455;42.150;24.734;2022-10-01T10:31:08;6.40;;;3.78;;
6834;SDS011;3455;42.150;24.734;2022-10-01T10:33:45;9.30;;;4.38;;
6834;SDS011;3455;42.150;24.734;2022-10-01T10:36:15;5.65;;;4.75;;
6834;SDS011;3455;42.150;24.734;2022-10-01T10:38:44;9.15;;;7.70;;
6834;SDS011;3455;42.150;24.734;2022-10-01T10:41:15;9.20;;;8.40;;
6834;SDS011;3455;42.150;24.734;2022-10-01T10:43:50;10.43;;;8.43;;
6834;SDS011;3455;42.150;24.734;2022-10-01T10:46:23;13.38;;;8.15;;
6834;SDS011;3455;42.150;24.734;2022-10-01T10:48:58;9.00;;;8.27;;
6834;SDS011;3455;42.150;24.734;2022-10-01T10:51:41;14.02;;;8.07;;
6834;SDS011;3455;42.150;24.734;2022-10-01T10:54:16;9.93;;;6.82;;
6834;SDS011;3455;42.150;24.734;2022-10-01T10:56:50;10.75;;;8.07;;
6834;SDS011;3455;42.150;24.734;2022-10-01T10:59:29;8.85;;;5.88;;
6834;SDS011;3455;42.150;24.734;2022-10-01T11:01:58;8.38;;;6.13;;
6834;SDS011;3455;42.150;24.734;2022-10-01T11:04:31;7.40;;;4.93;;
6834;SDS011;3455;42.150;24.734;2022-10-01T11:07:04;5.55;;;5.05;;
6834;SDS011;3455;42.150;24.734;2022-10-01T11:09:34;6.25;;;5.60;;
6834;SDS011;3455;42.150;24.734;2022-10-01T11:12:12;8.25;;;5.28;;
6834;SDS011;3455;42.150;24.734;2022-10-01T11:14:53;7.05;;;4.97;;
6834;SDS011;3455;42.150;24.734;2022-10-01T11:20:38;15.82;;;6.47;;
6834;SDS011;3455;42.150;24.734;2022-10-01T11:23:19;13.82;;;5.40;;
6834;SDS011;3455;42.150;24.734;2022-10-01T11:26:17;11.82;;;5.38;;
6834;SDS011;3455;42.150;24.734;2022-10-01T11:28:53;5.28;;;4.78;;
6834;SDS011;3455;42.150;24.734;2022-10-01T11:31:35;14.18;;;5.60;;
6834;SDS011;3455;42.150;24.734;2022-10-01T11:34:12;6.55;;;4.95;;
6834;SDS011;3455;42.150;24.734;2022-10-01T11:36:56;8.65;;;4.60;;
6834;SDS011;3455;42.150;24.734;2022-10-01T11:39:30;8.68;;;5.32;;
6834;SDS011;3455;42.150;24.734;2022-10-01T11:42:02;14.93;;;5.30;;
6834;SDS011;3455;42.150;24.734;2022-10-01T11:44:34;5.25;;;4.82;;
6834;SDS011;3455;42.150;24.734;2022-10-01T11:47:07;6.13;;;5.53;;
6834;SDS011;3455;42.150;24.734;2022-10-01T11:49:40;9.18;;;6.28;;
6834;SDS011;3455;42.150;24.734;2022-10-01T11:52:15;6.20;;;5.65;;
6834;SDS011;3455;42.150;24.734;2022-10-01T11:54:59;9.63;;;6.25;;
6834;SDS011;3455;42.150;24.734;2022-10-01T11:57:54;7.88;;;6.85;;
6834;SDS011;3455;42.150;24.734;2022-10-01T12:00:43;5.97;;;5.47;;
6834;SDS011;3455;42.150;24.734;2022-10-01T12:03:20;8.63;;;6.35;;
6834;SDS011;3455;42.150;24.734;2022-10-01T12:05:55;12.15;;;5.85;;
6834;SDS011;3455;42.150;24.734;2022-10-01T12:08:25;9.55;;;6.15;;
6834;SDS011;3455;42.150;24.734;2022-10-01T12:10:57;10.70;;;6.00;;
6834;SDS011;3455;42.150;24.734;2022-10-01T12:13:32;8.93;;;6.20;;
6834;SDS011;3455;42.150;24.734;2022-10-01T12:16:05;7.20;;;6.15;;
6834;SDS011;3455;42.150;24.734;2022-10-01T12:18:42;11.27;;;6.30;;
6834;SDS011;3455;42.150;24.734;2022-10-01T12:21:17;8.40;;;5.65;;
6834;SDS011;3455;42.150;24.734;2022-10-01T12:23:49;13.43;;;5.93;;
6834;SDS011;3455;42.150;24.734;2022-10-01T12:26:23;7.28;;;5.43;;
6834;SDS011;3455;42.150;24.734;2022-10-01T12:29:00;7.15;;;6.45;;
6834;SDS011;3455;42.150;24.734;2022-10-01T12:31:35;7.80;;;6.35;;
6834;SDS011;3455;42.150;24.734;2022-10-01T12:34:12;6.70;;;6.03;;
6834;SDS011;3455;42.150;24.734;2022-10-01T12:36:48;6.25;;;5.75;;
6834;SDS011;3455;42.150;24.734;2022-10-01T12:39:37;8.02;;;6.45;;
6834;SDS011;3455;42.150;24.734;2022-10-01T12:42:20;7.28;;;6.30;;
6834;SDS011;3455;42.150;24.734;2022-10-01T12:44:59;10.68;;;6.60;;
6834;SDS011;3455;42.150;24.734;2022-10-01T12:47:38;7.70;;;6.07;;
6834;SDS011;3455;42.150;24.734;2022-10-01T12:50:23;7.32;;;6.60;;
6834;SDS011;3455;42.150;24.734;2022-10-01T12:53:02;10.60;;;6.70;;
6834;SDS011;3455;42.150;24.734;2022-10-01T12:55:48;10.52;;;6.93;;
6834;SDS011;3455;42.150;24.734;2022-10-01T12:58:35;10.02;;;7.60;;
6834;SDS011;3455;42.150;24.734;2022-10-01T13:01:26;11.85;;;7.25;;
6834;SDS011;3455;42.150;24.734;2022-10-01T13:04:18;11.98;;;6.93;;
6834;SDS011;3455;42.150;24.734;2022-10-01T13:06:59;9.18;;;7.95;;
6834;SDS011;3455;42.150;24.734;2022-10-01T13:09:37;11.93;;;7.55;;
6834;SDS011;3455;42.150;24.734;2022-10-01T13:12:20;7.47;;;6.78;;
6834;SDS011;3455;42.150;24.734;2022-10-01T13:15:01;8.68;;;7.88;;
6834;SDS011;3455;42.150;24.734;2022-10-01T13:17:31;16.27;;;8.48;;
6834;SDS011;3455;42.150;24.734;2022-10-01T13:20:07;10.60;;;9.73;;
6834;SDS011;3455;42.150;24.734;2022-10-01T13:22:42;9.10;;;8.55;;
6834;SDS011;3455;42.150;24.734;2022-10-01T13:25:20;10.23;;;9.45;;
6834;SDS011;3455;42.150;24.734;2022-10-01T13:27:58;10.20;;;9.20;;
6834;SDS011;3455;42.150;24.734;2022-10-01T13:30:35;11.15;;;10.25;;
6834;SDS011;3455;42.150;24.734;2022-10-01T13:33:20;11.07;;;9.70;;
6834;SDS011;3455;42.150;24.734;2022-10-01T13:35:52;10.13;;;9.13;;
6834;SDS011;3455;42.150;24.734;2022-10-01T13:38:27;9.40;;;8.50;;
6834;SDS011;3455;42.150;24.734;2022-10-01T13:41:05;7.15;;;6.63;;
6834;SDS011;3455;42.150;24.734;2022-10-01T13:43:47;7.13;;;6.63;;
6834;SDS011;3455;42.150;24.734;2022-10-01T13:46:20;8.20;;;7.38;;
6834;SDS011;3455;42.150;24.734;2022-10-01T13:48:47;9.20;;;8.30;;
6834;SDS011;3455;42.150;24.734;2022-10-01T13:51:16;8.90;;;8.10;;
6834;SDS011;3455;42.150;24.734;2022-10-01T13:53:45;10.18;;;7.45;;
6834;SDS011;3455;42.150;24.734;2022-10-01T13:56:25;10.32;;;7.93;;
6834;SDS011;3455;42.150;24.734;2022-10-01T13:58:55;10.05;;;7.88;;
6834;SDS011;3455;42.150;24.734;2022-10-01T14:01:26;12.88;;;8.70;;
6834;SDS011;3455;42.150;24.734;2022-10-01T14:04:04;8.73;;;7.85;;
6834;SDS011;3455;42.150;24.734;2022-10-01T14:06:42;12.18;;;7.78;;
6834;SDS011;3455;42.150;24.734;2022-10-01T14:09:13;12.02;;;7.90;;
6834;SDS011;3455;42.150;24.734;2022-10-01T14:11:44;8.77;;;6.82;;
6834;SDS011;3455;42.150;24.734;2022-10-01T14:14:31;8.13;;;7.00;;
6834;SDS011;3455;42.150;24.734;2022-10-01T14:17:18;7.28;;;6.57;;
6834;SDS011;3455;42.150;24.734;2022-10-01T14:19:47;9.88;;;7.10;;
6834;SDS011;3455;42.150;24.734;2022-10-01T14:25:27;7.18;;;6.47;;
6834;SDS011;3455;42.150;24.734;2022-10-01T14:28:16;10.13;;;6.07;;
6834;SDS011;3455;42.150;24.734;2022-10-01T14:30:56;7.10;;;6.53;;
6834;SDS011;3455;42.150;24.734;2022-10-01T14:33:35;5.75;;;5.15;;
6834;SDS011;3455;42.150;24.734;2022-10-01T14:36:21;6.00;;;5.65;;
6834;SDS011;3455;42.150;24.734;2022-10-01T14:39:01;7.10;;;6.40;;
6834;SDS011;3455;42.150;24.734;2022-10-01T14:41:31;6.22;;;5.65;;
6834;SDS011;3455;42.150;24.734;2022-10-01T14:43:59;9.98;;;9.05;;
6834;SDS011;3455;42.150;24.734;2022-10-01T14:46:27;10.55;;;6.00;;
6834;SDS011;3455;42.150;24.734;2022-10-01T14:48:57;5.82;;;5.35;;
6834;SDS011;3455;42.150;24.734;2022-10-01T14:51:25;6.90;;;5.75;;
6834;SDS011;3455;42.150;24.734;2022-10-01T14:53:53;8.40;;;7.32;;
6834;SDS011;3455;42.150;24.734;2022-10-01T14:56:23;10.55;;;5.07;;
6834;SDS011;3455;42.150;24.734;2022-10-01T14:58:52;8.77;;;5.80;;
6834;SDS011;3455;42.150;24.734;2022-10-01T15:01:21;10.45;;;5.93;;
6834;SDS011;3455;42.150;24.734;2022-10-01T15:03:51;8.70;;;6.45;;
6834;SDS011;3455;42.150;24.734;2022-10-01T15:06:19;6.90;;;6.40;;
6834;SDS011;3455;42.150;24.734;2022-10-01T15:08:49;9.38;;;5.45;;
6834;SDS011;3455;42.150;24.734;2022-10-01T15:11:18;14.35;;;7.10;;
6834;SDS011;3455;42.150;24.734;2022-10-01T15:13:48;12.45;;;8.15;;
6834;SDS011;3455;42.150;24.734;2022-10-01T15:16:18;18.27;;;8.35;;
6834;SDS011;3455;42.150;24.734;2022-10-01T15:18:48;9.82;;;7.50;;
6834;SDS011;3455;42.150;24.734;2022-10-01T15:21:20;12.18;;;7.35;;
6834;SDS011;3455;42.150;24.734;2022-10-01T15:23:52;44.30;;;8.82;;
6834;SDS011;3455;42.150;24.734;2022-10-01T15:26:20;42.25;;;9.73;;
6834;SDS011;3455;42.150;24.734;2022-10-01T15:28:59;17.63;;;9.13;;
6834;SDS011;3455;42.150;24.734;2022-10-01T15:31:27;12.73;;;7.97;;
6834;SDS011;3455;42.150;24.734;2022-10-01T15:33:55;13.65;;;8.15;;
6834;SDS011;3455;42.150;24.734;2022-10-01T15:36:25;30.25;;;23.27;;